Holland, IA

8:13 AM CDT on September 16, 2019 (GMT -0500)
Grundy Center | | Change Station
Active Advisory: Dense Fog Advisory

Elev 991 ft 42.38 °N, 92.76 °W | Updated 13 seconds ago

Mostly Cloudy
Mostly Cloudy
67.3 °F
Feels Like 67.3 °F
N
3.4
Wind Variable Wind from ESE
Gusts 4.5 mph

Today
High -- | Low -- °F
--% Chance of Precip.
Yesterday
High -- | Low -- °F
Precip. -- in
Pressure 30.08 in
Visibility 0.2 miles
Clouds
Dew Point 67 °F
Humidity 99%
Rainfall 0.01 in
Snow Depth Not available.
6:51 AM 7:19 PM
Waning Gibbous, 95% visible
METAR KMIW 161253Z AUTO 13006KT M1/4SM FG VV002 21/21 A3009 RMK AO2 SLP185 T02060206
Pressure 30.08 in
Visibility 0.2 miles
Clouds
Dew Point 67 °F
Humidity 99%
Rainfall 0.01 in
Snow Depth Not available.
6:51 AM 7:19 PM
Waning Gibbous, 95% visible
METAR KMIW 161253Z AUTO 13006KT M1/4SM FG VV002 21/21 A3009 RMK AO2 SLP185 T02060206

Get Your Daily Forecast Email!

Thanks for signing up!

Be on the lookout for a verification email in your inbox.

You'll start receiving severe weather alerts in your inbox..

×

10-Day Weather Forecast

Almanac

Astronomy

Sep. 16, 2019 Rise Set
Actual Time
Civil Twilight
Nautical Twilight
Astronomical Twilight
Moon
Length of Visible Light
Length of Day
Tomorrow will be .
, % of the Moon is Illuminated

Today's Extremes

State Highs State Lows

Community

WunderPhotos

Category 6

Welcome to Category 6. This is the collective home for Weather Underground's featured writeups by Dr. Jeff Masters (right), Bob Henson (left), Chris Burt, and other regular contributors.

Nearby

Air Quality

  Air Quality AQ Index Pollutant
Not available.

Snow Depth

Station Depth Elevation

Earthquake Activity

City Distance Mag. Time & Date
Minimum magnitude displayed is 2.5.

Coastal Water Temperatures

Place Temperature

Stations

Nearby Weather Stations

Station Location Temp. Windchill Dew Point Humidity Wind Precip. Elev Updated Type
                   

Watches & Warnings

Dense Fog Advisory
Issued: 6:00 AM CDT Sep. 16, 2019 – National Weather Service

... Dense fog advisory remains in effect until 10 am CDT this
morning...

* visibility... less than one quarter of a mile.

* Impacts... dangerous travel conditions for the morning commute.

Precautionary/preparedness actions...

A dense fog advisory means visibilities will frequently be
reduced to less than one quarter mile. If driving, slow down, use
your headlights, and leave plenty of distance ahead of you.



Klp